Strona główna
METAR-TAF:

METAR-TAF

Lotnisko :

Vidsel, Szwecja

Szerokość geograficzna: 65-52N, Długość geograficzna: 020-08E, wysokość: 180 m

Aktualna obserwacja pogody

Raport powstał 31 minut temu, godzina 04:50 UTC
Wiatr 10 kt od zachodnio-północny zachód
Temperatura -1°C
Wilgotność 74%
Ciśnienie 1000 hPa
Widzialność 10 km lub więcej

METAR: ESPE 090450Z AUTO 29010KT 9999 NCD M01/M05 Q1000

czas: 07:21 (05:21 UTC)


TAF: brakujący

Obserwacja i prognoza pogody dla ponad 4000 lotnisk (raport METAR i TAF).

Dostępne stacje oznaczono żółtymi i czerwonymi punktami na mapie.

Najedź kursorem aby zobaczyć nazwę stacji.

Kliknij aby zobaczyć obserwacje i prognozy pogody.

Aby zmienić mapę: kliknij na zielony przycisk z czarnym krzyżykiem, aby powiększyć; na zielony przycisk z myślnikiem, aby pomniejszyć; na zielone strzałki, aby przejść do map sąsiednich.


METAR-TAF: